Time;durP1;ratioP1;P1;durP2;ratioP2;P2;SDS_P1;SDS_P2;PMS_P1;PMS_P2;Temp;Humidity;BMP_temperature;BMP_pressure;BME280_temperature;BME280_humidity;BME280_pressure;Samples;Min_cycle;Max_cycle;Signal;HPM_P1;HPM_P2
2022/07/25 00:01:44;;;;;;;10.68;9.65;;;23.60;1.00;;;;;;7369343;19;20042;-68
2022/07/25 00:04:15;;;;;;;12.05;9.93;;;23.60;1.00;;;;;;7369901;19;20081;-67
2022/07/25 00:06:48;;;;;;;11.60;9.55;;;23.40;1.00;;;;;;7367386;19;20474;-67
2022/07/25 00:09:18;;;;;;;11.25;10.13;;;23.30;1.00;;;;;;7369173;19;20042;-68
2022/07/25 00:11:48;;;;;;;12.55;9.98;;;23.30;1.00;;;;;;7391704;19;20022;-68
2022/07/25 00:14:21;;;;;;;10.88;9.23;;;23.30;1.00;;;;;;7369577;19;20030;-68
2022/07/25 00:16:51;;;;;;;11.70;9.75;;;23.10;1.00;;;;;;7367026;19;20023;-67
2022/07/25 00:19:21;;;;;;;11.50;10.30;;;23.00;1.00;;;;;;7369304;19;20074;-68
2022/07/25 00:21:54;;;;;;;10.95;9.80;;;23.10;1.00;;;;;;7368919;19;20021;-68
2022/07/25 00:24:23;;;;;;;11.18;10.07;;;23.00;1.00;;;;;;7369949;19;20070;-68
2022/07/25 00:26:54;;;;;;;11.65;10.48;;;23.00;1.00;;;;;;7389367;19;20098;-68
2022/07/25 00:29:24;;;;;;;10.85;9.75;;;23.20;1.00;;;;;;7367812;19;20037;-69
2022/07/25 00:31:54;;;;;;;10.73;9.52;;;23.20;1.00;;;;;;7366868;19;20014;-68
2022/07/25 00:34:24;;;;;;;13.13;10.02;;;23.20;1.00;;;;;;7369778;19;20030;-69
2022/07/25 00:36:56;;;;;;;11.13;10.02;;;23.30;1.00;;;;;;7367601;19;20010;-68
2022/07/25 00:39:26;;;;;;;10.35;9.27;;;23.30;1.00;;;;;;7367581;19;20067;-68
2022/07/25 00:41:56;;;;;;;12.95;10.02;;;23.40;1.00;;;;;;7390018;19;20010;-69
2022/07/25 00:44:28;;;;;;;11.23;9.63;;;23.30;1.00;;;;;;7368353;19;20006;-69
2022/07/25 00:46:59;;;;;;;10.95;9.85;;;23.30;1.00;;;;;;7366622;19;20024;-68
2022/07/25 00:49:29;;;;;;;10.15;9.15;;;23.20;1.00;;;;;;7367641;19;20094;-68
2022/07/25 00:52:02;;;;;;;10.77;9.77;;;23.30;1.00;;;;;;7368122;19;20011;-68
2022/07/25 00:54:32;;;;;;;12.60;9.35;;;23.10;1.00;;;;;;7367566;19;20015;-68
2022/07/25 00:57:02;;;;;;;13.45;9.75;;;23.20;1.00;;;;;;7388872;19;20021;-68
2022/07/25 00:59:32;;;;;;;11.48;9.98;;;23.20;1.00;;;;;;7367111;19;20019;-67
2022/07/25 01:02:02;;;;;;;11.60;9.52;;;23.10;1.00;;;;;;7366633;19;20011;-68
2022/07/25 01:04:33;;;;;;;11.95;9.45;;;23.20;1.00;;;;;;7367181;19;20030;-68
2022/07/25 01:07:05;;;;;;;12.82;9.40;;;23.00;1.00;;;;;;7371372;19;20011;-68
2022/07/25 01:09:36;;;;;;;9.73;8.88;;;23.10;1.00;;;;;;7374142;19;20553;-68
2022/07/25 01:12:07;;;;;;;9.65;8.65;;;23.00;1.00;;;;;;7388175;19;20022;-69
2022/07/25 01:14:37;;;;;;;9.65;8.75;;;23.00;1.00;;;;;;7397509;19;20015;-67
2022/07/25 01:17:07;;;;;;;10.15;9.25;;;23.00;1.00;;;;;;7371573;19;20545;-69
2022/07/25 01:19:37;;;;;;;9.80;8.90;;;22.90;1.00;;;;;;7373422;19;20010;-69
2022/07/25 01:22:09;;;;;;;10.40;9.30;;;22.90;1.00;;;;;;7372746;19;20015;-68
2022/07/25 01:24:41;;;;;;;10.00;8.93;;;22.90;1.00;;;;;;7375024;19;20027;-68
2022/07/25 01:27:11;;;;;;;10.32;9.32;;;22.90;1.00;;;;;;7373114;19;20070;-69
2022/07/25 01:29:49;;;;;;;10.18;9.00;;;22.90;1.00;;;;;;7395675;19;20018;-70
2022/07/25 01:32:21;;;;;;;11.18;9.00;;;22.90;1.00;;;;;;7373893;19;20415;-68
2022/07/25 01:34:51;;;;;;;11.02;9.20;;;22.80;1.00;;;;;;7374729;19;20003;-69
2022/07/25 01:37:24;;;;;;;12.63;9.20;;;22.70;1.00;;;;;;7373085;19;20007;-69
2022/07/25 01:39:54;;;;;;;11.85;9.75;;;22.70;1.00;;;;;;7372892;19;20109;-67
2022/07/25 01:42:24;;;;;;;10.10;9.07;;;22.90;1.00;;;;;;7373020;19;20023;-68
2022/07/25 01:44:54;;;;;;;13.57;9.80;;;22.80;1.00;;;;;;7396626;19;20476;-68
2022/07/25 01:47:24;;;;;;;10.27;9.18;;;22.80;1.00;;;;;;7372655;19;20027;-68
2022/07/25 01:49:54;;;;;;;16.95;10.48;;;22.80;1.00;;;;;;7373826;19;20481;-68
2022/07/25 01:52:26;;;;;;;10.52;9.52;;;22.80;1.00;;;;;;7374348;19;20085;-68
2022/07/25 01:54:56;;;;;;;9.90;8.90;;;22.90;1.00;;;;;;7373315;19;20369;-68
2022/07/25 01:57:27;;;;;;;10.93;9.20;;;22.80;1.00;;;;;;7372209;19;20018;-68
2022/07/25 02:00:00;;;;;;;11.30;10.20;;;22.80;1.00;;;;;;7394669;19;20090;-68
2022/07/25 02:02:30;;;;;;;10.52;9.50;;;22.80;1.00;;;;;;7371636;19;20069;-68
2022/07/25 02:05:00;;;;;;;12.20;8.95;;;22.70;1.00;;;;;;7372513;19;20499;-68
2022/07/25 02:07:33;;;;;;;12.32;9.10;;;22.60;1.00;;;;;;7370746;19;20007;-68
2022/07/25 02:10:02;;;;;;;10.98;9.38;;;22.50;1.00;;;;;;7372457;19;20078;-68
2022/07/25 02:12:32;;;;;;;11.93;9.95;;;22.50;1.00;;;;;;7372961;19;20017;-69
2022/07/25 02:15:02;;;;;;;9.75;8.85;;;22.50;1.00;;;;;;7394309;19;20092;-67
2022/07/25 02:17:32;;;;;;;10.88;9.77;;;22.40;1.00;;;;;;7368595;19;20010;-68
2022/07/25 02:20:02;;;;;;;10.68;9.45;;;22.40;1.00;;;;;;7372385;19;20034;-68
2022/07/25 02:22:35;;;;;;;10.40;9.40;;;22.30;1.00;;;;;;7371858;19;20013;-69
2022/07/25 02:25:06;;;;;;;10.07;9.07;;;22.10;1.00;;;;;;7371787;19;20085;-69
2022/07/25 02:27:36;;;;;;;11.27;10.18;;;22.10;1.00;;;;;;7371409;19;20086;-67
2022/07/25 02:30:07;;;;;;;11.15;9.50;;;22.00;1.00;;;;;;7386270;19;20006;-68
2022/07/25 02:32:37;;;;;;;11.85;9.95;;;22.00;1.00;;;;;;7394226;19;20021;-67
2022/07/25 02:35:08;;;;;;;11.15;9.52;;;22.10;1.00;;;;;;7372019;19;20534;-68
2022/07/25 02:37:53;;;;;;;10.45;9.35;;;22.10;1.00;;;;;;7370404;19;20003;-68
2022/07/25 02:40:23;;;;;;;12.52;9.43;;;22.20;1.00;;;;;;7372030;19;20109;-68
2022/07/25 02:42:53;;;;;;;10.80;9.55;;;22.10;1.00;;;;;;7370732;19;20415;-69
2022/07/25 02:45:23;;;;;;;10.80;9.65;;;22.10;1.00;;;;;;7372372;19;20542;-68
2022/07/25 02:47:53;;;;;;;10.35;9.25;;;22.10;1.00;;;;;;7394366;19;20088;-68
2022/07/25 02:50:25;;;;;;;11.00;9.90;;;22.00;1.00;;;;;;7372146;19;20010;-68
2022/07/25 02:52:57;;;;;;;11.40;9.93;;;22.10;1.00;;;;;;7371659;19;20031;-69
2022/07/25 02:55:27;;;;;;;9.95;8.95;;;22.00;1.00;;;;;;7370124;19;20085;-68
2022/07/25 02:57:57;;;;;;;10.35;9.35;;;22.00;1.00;;;;;;7372119;19;20093;-68
2022/07/25 03:00:27;;;;;;;10.13;9.23;;;21.90;1.00;;;;;;7372649;19;20023;-68
2022/07/25 03:03:00;;;;;;;12.15;9.40;;;21.90;1.00;;;;;;7392101;19;20081;-68
2022/07/25 03:05:30;;;;;;;13.43;9.15;;;21.80;1.00;;;;;;7370865;19;20011;-67
2022/07/25 03:08:02;;;;;;;9.98;8.93;;;21.80;1.00;;;;;;7369377;19;20082;-68
2022/07/25 03:10:33;;;;;;;10.65;9.55;;;21.90;1.00;;;;;;7370560;19;20009;-68
2022/07/25 03:13:02;;;;;;;10.38;9.27;;;21.90;1.00;;;;;;7371784;19;20101;-68
2022/07/25 03:15:33;;;;;;;10.77;9.68;;;21.90;1.00;;;;;;7370501;19;20094;-68
2022/07/25 03:18:02;;;;;;;11.88;9.60;;;21.90;1.00;;;;;;7392699;19;20031;-68
2022/07/25 03:20:32;;;;;;;10.70;9.60;;;21.90;1.00;;;;;;7371871;19;20070;-68
2022/07/25 03:23:05;;;;;;;10.50;9.50;;;21.90;1.00;;;;;;7370393;19;20017;-68
2022/07/25 03:25:35;;;;;;;13.80;10.50;;;21.90;1.00;;;;;;7369623;19;20010;-69
2022/07/25 03:28:05;;;;;;;12.75;10.38;;;21.80;1.00;;;;;;7368872;19;20006;-68
2022/07/25 03:30:35;;;;;;;11.93;9.77;;;21.80;1.00;;;;;;7368994;19;20014;-69
2022/07/25 03:33:05;;;;;;;10.85;9.45;;;21.70;1.00;;;;;;7392519;19;20032;-68
2022/07/25 03:35:35;;;;;;;11.43;10.15;;;21.70;1.00;;;;;;7371049;19;20077;-68
2022/07/25 03:38:07;;;;;;;11.90;9.90;;;21.80;1.00;;;;;;7368992;19;20470;-68
2022/07/25 03:40:37;;;;;;;12.07;9.93;;;21.80;1.00;;;;;;7369943;19;20030;-68
2022/07/25 03:43:08;;;;;;;11.48;10.25;;;21.70;1.00;;;;;;7369696;19;20472;-67
2022/07/25 03:45:38;;;;;;;11.25;10.02;;;21.70;1.00;;;;;;7370000;19;20069;-67
2022/07/25 03:48:08;;;;;;;11.60;10.25;;;21.70;1.00;;;;;;7369967;19;20014;-68
2022/07/25 03:50:38;;;;;;;13.27;10.80;;;21.70;1.00;;;;;;7392520;19;20020;-67
2022/07/25 03:53:10;;;;;;;10.70;9.68;;;21.70;1.00;;;;;;7369679;19;20019;-67
2022/07/25 03:55:41;;;;;;;11.70;10.20;;;21.80;1.00;;;;;;7368925;19;20006;-67
2022/07/25 03:58:11;;;;;;;10.73;9.57;;;21.90;1.00;;;;;;7369476;19;20031;-67
2022/07/25 04:00:40;;;;;;;13.77;10.05;;;22.00;1.00;;;;;;7369946;19;20101;-67
2022/07/25 04:03:11;;;;;;;11.32;10.13;;;22.00;1.00;;;;;;7369115;19;20014;-67
2022/07/25 04:05:41;;;;;;;11.07;10.02;;;22.00;1.00;;;;;;7390545;19;20010;-67
2022/07/25 04:08:18;;;;;;;13.68;9.63;;;22.20;1.00;;;;;;7366428;19;20034;-67
2022/07/25 04:10:48;;;;;;;11.20;9.55;;;22.20;1.00;;;;;;7368953;19;20094;-68
2022/07/25 04:13:18;;;;;;;10.57;9.48;;;22.30;1.00;;;;;;7370192;19;20010;-67
2022/07/25 04:15:48;;;;;;;12.07;9.25;;;23.30;1.00;;;;;;7368217;19;20015;-68
2022/07/25 04:18:18;;;;;;;11.23;9.38;;;23.70;1.00;;;;;;7368617;19;20018;-68
2022/07/25 04:20:53;;;;;;;11.38;9.90;;;24.30;1.00;;;;;;7391561;19;20017;-68
2022/07/25 04:23:27;;;;;;;10.70;9.38;;;24.30;1.00;;;;;;7367833;19;20414;-67
2022/07/25 04:25:58;;;;;;;12.18;9.50;;;25.10;1.00;;;;;;7367193;19;20502;-68
2022/07/25 04:28:28;;;;;;;12.95;10.00;;;25.30;1.00;;;;;;7367570;19;20672;-68
2022/07/25 04:30:58;;;;;;;11.95;9.68;;;25.80;1.00;;;;;;7367955;19;20010;-69
2022/07/25 04:33:28;;;;;;;11.80;10.00;;;25.80;1.00;;;;;;7368506;19;20366;-67
2022/07/25 04:36:00;;;;;;;11.60;9.77;;;26.10;1.00;;;;;;7389975;19;20014;-69
2022/07/25 04:38:33;;;;;;;12.35;9.93;;;26.30;1.00;;;;;;7368028;19;20081;-68
2022/07/25 04:41:04;;;;;;;11.20;9.18;;;26.90;1.00;;;;;;7366351;19;20023;-68
2022/07/25 04:43:34;;;;;;;12.43;10.48;;;26.60;1.00;;;;;;7366994;19;20074;-68
2022/07/25 04:46:04;;;;;;;12.10;10.15;;;26.70;1.00;;;;;;7367813;19;20553;-69
2022/07/25 04:48:35;;;;;;;12.70;9.98;;;27.00;1.00;;;;;;7368005;19;20023;-67
2022/07/25 04:51:04;;;;;;;10.55;9.45;;;27.70;1.00;;;;;;7390204;19;20021;-68
2022/07/25 04:53:37;;;;;;;9.55;8.65;;;28.30;1.00;;;;;;7368530;19;20021;-68
2022/07/25 04:56:08;;;;;;;11.10;9.40;;;28.20;1.00;;;;;;7366054;19;20027;-67
2022/07/25 04:58:38;;;;;;;13.60;9.32;;;28.70;1.00;;;;;;7368250;19;20017;-69
2022/07/25 05:01:08;;;;;;;9.57;8.65;;;28.70;1.00;;;;;;7367382;19;20090;-68
2022/07/25 05:03:38;;;;;;;11.52;9.38;;;29.30;1.00;;;;;;7365924;19;20074;-68
2022/07/25 05:06:08;;;;;;;11.23;9.50;;;29.20;1.00;;;;;;7367127;19;20010;-69
2022/07/25 05:08:41;;;;;;;11.35;9.75;;;29.50;1.00;;;;;;7388167;19;20018;-67
2022/07/25 05:11:11;;;;;;;14.07;9.68;;;29.10;1.00;;;;;;7366232;19;20078;-69
2022/07/25 05:13:41;;;;;;;12.63;9.30;;;29.30;1.00;;;;;;7366792;19;20089;-67
2022/07/25 05:16:11;;;;;;;12.15;9.98;;;29.40;1.00;;;;;;7364843;19;20086;-69
2022/07/25 05:18:41;;;;;;;11.02;9.23;;;28.70;1.00;;;;;;7367767;19;20667;-68
2022/07/25 05:21:12;;;;;;;11.18;9.98;;;29.00;1.00;;;;;;7367794;19;20534;-69
2022/07/25 05:23:45;;;;;;;11.50;9.80;;;29.70;1.00;;;;;;7388256;19;20339;-68
2022/07/25 05:26:15;;;;;;;12.65;9.77;;;29.60;1.00;;;;;;7364743;19;20014;-69
2022/07/25 05:28:45;;;;;;;10.93;9.73;;;29.60;1.00;;;;;;7365788;19;20038;-69
2022/07/25 05:31:15;;;;;;;11.32;10.10;;;29.80;1.00;;;;;;7364976;19;20419;-68
2022/07/25 05:33:45;;;;;;;13.85;9.77;;;29.60;1.00;;;;;;7366381;19;20017;-68
2022/07/25 05:36:15;;;;;;;10.48;9.00;;;29.30;1.00;;;;;;7365185;19;20513;-68
2022/07/25 05:38:48;;;;;;;13.15;9.75;;;29.00;1.00;;;;;;7388278;19;20697;-68
2022/07/25 05:41:18;;;;;;;10.63;9.55;;;30.00;1.00;;;;;;7365588;19;20006;-69
2022/07/25 05:43:48;;;;;;;13.07;9.73;;;29.60;1.00;;;;;;7363912;19;20010;-69
2022/07/25 05:46:18;;;;;;;11.27;10.15;;;29.00;1.00;;;;;;7365436;19;20493;-68
2022/07/25 05:48:48;;;;;;;10.93;9.77;;;29.80;1.00;;;;;;7365957;19;20014;-67
2022/07/25 05:51:18;;;;;;;15.18;10.00;;;29.90;1.00;;;;;;7366345;19;20006;-67
2022/07/25 05:53:50;;;;;;;11.77;10.13;;;29.10;1.00;;;;;;7394455;19;20584;-68
2022/07/25 05:56:20;;;;;;;11.68;9.30;;;29.20;1.00;;;;;;7371283;19;20081;-68
2022/07/25 05:58:53;;;;;;;19.02;9.75;;;29.90;1.00;;;;;;7372524;19;20048;-68
2022/07/25 06:01:23;;;;;;;12.13;9.98;;;29.90;1.00;;;;;;7370827;19;20458;-68
2022/07/25 06:03:52;;;;;;;12.25;9.60;;;29.30;1.00;;;;;;7372106;19;20081;-67
2022/07/25 06:06:22;;;;;;;18.30;10.60;;;27.70;1.00;;;;;;7372477;19;20021;-68
2022/07/25 06:08:55;;;;;;;13.70;9.82;;;27.00;1.00;;;;;;7393270;19;20033;-67
2022/07/25 06:11:27;;;;;;;14.05;9.57;;;26.60;1.00;;;;;;7371003;19;20015;-68
2022/07/25 06:13:59;;;;;;;14.48;9.20;;;26.60;1.00;;;;;;7371953;19;20422;-68
2022/07/25 06:16:29;;;;;;;12.82;10.07;;;27.00;1.00;;;;;;7370332;19;20034;-68
2022/07/25 06:18:59;;;;;;;11.10;9.82;;;27.60;1.00;;;;;;7372228;19;20043;-67
2022/07/25 06:21:29;;;;;;;11.10;9.85;;;29.00;1.00;;;;;;7371052;19;20050;-68
2022/07/25 06:24:02;;;;;;;11.00;9.00;;;29.70;1.00;;;;;;7393822;19;20288;-67
2022/07/25 06:26:32;;;;;;;11.40;9.05;;;29.10;1.00;;;;;;7369777;19;20031;-68
2022/07/25 06:29:02;;;;;;;9.68;8.68;;;29.10;1.00;;;;;;7369774;19;20006;-67
2022/07/25 06:31:33;;;;;;;10.52;8.88;;;28.80;1.00;;;;;;7370103;19;20086;-68
2022/07/25 06:34:02;;;;;;;11.55;8.63;;;28.10;1.00;;;;;;7370385;19;20012;-68
2022/07/25 06:36:33;;;;;;;9.88;8.88;;;28.10;1.00;;;;;;7369578;19;20018;-67
2022/07/25 06:39:06;;;;;;;11.50;8.63;;;28.10;1.00;;;;;;7392574;19;20421;-68
2022/07/25 06:41:36;;;;;;;10.98;8.52;;;28.60;1.00;;;;;;7370764;19;20024;-69
2022/07/25 06:44:06;;;;;;;10.35;8.55;;;28.30;1.00;;;;;;7368752;19;20035;-69
2022/07/25 06:46:37;;;;;;;10.63;8.73;;;28.10;1.00;;;;;;7368126;19;20025;-69
2022/07/25 06:49:07;;;;;;;9.93;8.32;;;27.70;1.00;;;;;;7370749;19;20554;-69
2022/07/25 06:51:37;;;;;;;10.38;8.75;;;27.80;1.00;;;;;;7370216;19;20015;-69
2022/07/25 06:54:12;;;;;;;9.10;8.27;;;27.80;1.00;;;;;;7370707;19;20015;-68
2022/07/25 06:56:42;;;;;;;12.80;8.65;;;27.90;1.00;;;;;;7388998;19;20018;-69
2022/07/25 06:59:12;;;;;;;11.18;8.85;;;27.70;1.00;;;;;;7367120;19;20058;-69
2022/07/25 07:01:42;;;;;;;10.05;8.40;;;27.60;1.00;;;;;;7368742;19;20057;-68
2022/07/25 07:04:18;;;;;;;12.55;8.48;;;27.80;1.00;;;;;;7366984;19;21293;-68
2022/07/25 07:06:48;;;;;;;9.52;8.48;;;28.10;1.00;;;;;;7368822;19;20405;-68
2022/07/25 07:09:20;;;;;;;8.98;8.05;;;28.00;1.00;;;;;;7369510;19;20029;-67
2022/07/25 07:11:50;;;;;;;9.45;7.90;;;28.40;1.00;;;;;;7390199;19;20530;-69
2022/07/25 07:14:20;;;;;;;9.13;8.13;;;28.20;1.00;;;;;;7368336;19;20409;-67
2022/07/25 07:16:50;;;;;;;10.13;8.75;;;28.50;1.00;;;;;;7367422;19;20016;-68
2022/07/25 07:19:20;;;;;;;11.32;7.70;;;28.70;1.00;;;;;;7369215;19;20006;-68
2022/07/25 07:21:50;;;;;;;8.70;7.97;;;28.60;1.00;;;;;;7369224;19;20010;-68
2022/07/25 07:24:22;;;;;;;9.35;8.45;;;28.70;1.00;;;;;;7369158;19;20034;-69
2022/07/25 07:26:54;;;;;;;10.80;9.30;;;29.00;1.00;;;;;;7389334;19;20022;-67
2022/07/25 07:29:27;;;;;;;10.63;8.23;;;28.80;1.00;;;;;;7369420;19;20118;-69
2022/07/25 07:31:57;;;;;;;10.02;8.25;;;29.00;1.00;;;;;;7369360;19;20334;-69
2022/07/25 07:34:27;;;;;;;10.30;8.40;;;29.60;1.00;;;;;;7369558;19;20028;-69
2022/07/25 07:36:57;;;;;;;12.40;8.48;;;29.80;1.00;;;;;;7367977;19;20014;-68
2022/07/25 07:39:29;;;;;;;9.18;8.02;;;29.90;1.00;;;;;;7369432;19;20010;-69
2022/07/25 07:41:59;;;;;;;8.93;8.00;;;30.20;1.00;;;;;;7390370;19;20039;-69
2022/07/25 07:44:29;;;;;;;9.20;8.20;;;30.30;1.00;;;;;;7367284;19;20006;-69
2022/07/25 07:47:01;;;;;;;10.45;8.63;;;30.20;1.00;;;;;;7366503;19;20007;-68
2022/07/25 07:49:31;;;;;;;10.55;8.50;;;30.20;1.00;;;;;;7367591;19;20514;-68
2022/07/25 07:52:06;;;;;;;10.60;8.15;;;30.20;1.00;;;;;;7367703;19;20018;-68
2022/07/25 07:57:27;;;;;;;12.20;8.45;;;30.00;1.00;;;;;;7366908;19;20018;-69
2022/07/25 08:00:02;;;;;;;10.52;9.32;;;30.10;1.00;;;;;;7392411;19;20021;-70
2022/07/25 08:02:32;;;;;;;9.88;8.27;;;30.20;1.00;;;;;;7365369;19;20017;-68
2022/07/25 08:05:02;;;;;;;11.20;9.13;;;30.10;1.00;;;;;;7363139;19;20018;-70
2022/07/25 08:07:33;;;;;;;11.18;9.43;;;29.90;1.00;;;;;;7353478;19;20449;-67
2022/07/25 08:10:07;;;;;;;10.48;8.57;;;30.10;1.00;;;;;;7355952;19;20700;-68
2022/07/25 08:12:41;;;;;;;;;;;30.00;1.00;;;;;;7356056;19;20010;-68
2022/07/25 08:15:12;;;;;;;9.43;8.52;;;30.20;1.00;;;;;;7363551;19;20331;-68
2022/07/25 08:17:45;;;;;;;11.27;8.82;;;30.50;1.00;;;;;;7387610;19;20474;-67
2022/07/25 08:20:16;;;;;;;9.65;8.65;;;30.50;1.00;;;;;;7367992;19;20134;-69
2022/07/25 08:23:06;;;;;;;10.57;9.48;;;30.10;1.00;;;;;;7367198;19;20002;-70
2022/07/25 08:25:39;;;;;;;12.57;8.95;;;30.50;1.00;;;;;;7367160;19;20010;-67
2022/07/25 08:28:09;;;;;;;10.25;8.55;;;30.60;1.00;;;;;;7367509;19;20024;-68
2022/07/25 08:30:41;;;;;;;9.88;8.85;;;30.60;1.00;;;;;;7367278;19;20014;-68
2022/07/25 08:33:14;;;;;;;9.93;8.85;;;30.50;1.00;;;;;;7366757;19;20054;-68
2022/07/25 08:35:47;;;;;;;;;;;30.70;1.00;;;;;;7389226;19;20093;-68
2022/07/25 08:38:17;;;;;;;10.57;8.88;;;31.00;1.00;;;;;;7367035;19;19919;-69
2022/07/25 08:40:50;;;;;;;8.98;8.02;;;30.90;1.00;;;;;;7367647;19;20020;-68
2022/07/25 08:43:21;;;;;;;10.70;8.47;;;31.10;1.00;;;;;;7368037;19;20010;-68
2022/07/25 08:45:52;;;;;;;12.15;9.15;;;31.10;1.00;;;;;;7367491;19;20279;-69
2022/07/25 08:48:24;;;;;;;9.98;8.55;;;31.10;1.00;;;;;;7367478;19;20014;-69
2022/07/25 08:50:55;;;;;;;9.07;8.18;;;31.40;1.00;;;;;;7389750;19;20010;-69
2022/07/25 08:53:29;;;;;;;9.07;7.90;;;31.30;1.00;;;;;;7367925;19;20060;-69
2022/07/25 08:56:06;;;;;;;9.60;8.60;;;31.20;1.00;;;;;;7366138;19;20031;-68
2022/07/25 08:58:43;;;;;;;8.88;7.97;;;31.30;1.00;;;;;;7366586;19;20006;-68
2022/07/25 09:01:14;;;;;;;9.10;8.20;;;31.40;1.00;;;;;;7368003;19;20034;-68
2022/07/25 09:03:44;;;;;;;8.25;7.45;;;31.60;1.00;;;;;;7366727;19;20011;-69
2022/07/25 09:06:19;;;;;;;10.55;8.57;;;31.50;1.00;;;;;;7366281;19;20014;-68
2022/07/25 09:08:56;;;;;;;11.82;7.72;;;31.50;1.00;;;;;;7389030;19;20024;-70
2022/07/25 09:11:34;;;;;;;9.85;8.07;;;31.60;1.00;;;;;;7366391;19;20078;-69
2022/07/25 09:14:06;;;;;;;8.95;7.28;;;31.40;1.00;;;;;;7366653;19;20505;-68
2022/07/25 09:16:41;;;;;;;8.85;7.82;;;31.60;1.00;;;;;;7363767;19;20006;-68
2022/07/25 09:19:15;;;;;;;9.45;7.70;;;31.50;1.00;;;;;;7366046;19;20007;-69
2022/07/25 09:21:47;;;;;;;8.43;7.63;;;31.40;1.00;;;;;;7366995;19;20027;-68
2022/07/25 09:24:21;;;;;;;8.88;7.97;;;31.10;1.00;;;;;;7367296;19;20510;-67
2022/07/25 09:26:58;;;;;;;9.48;7.57;;;31.30;1.00;;;;;;7388045;19;20082;-69
2022/07/25 09:29:30;;;;;;;12.15;8.27;;;31.30;1.00;;;;;;7373210;19;20095;-67
2022/07/25 09:32:01;;;;;;;8.60;7.43;;;31.80;1.00;;;;;;7368878;19;20021;-67
2022/07/25 09:34:33;;;;;;;8.40;7.60;;;31.40;1.00;;;;;;7372997;19;20470;-68
2022/07/25 09:37:05;;;;;;;9.43;7.72;;;31.80;1.00;;;;;;7371243;19;20017;-68
2022/07/25 09:39:41;;;;;;;9.10;8.05;;;31.80;1.00;;;;;;7372870;19;20083;-68
2022/07/25 09:42:27;;;;;;;9.23;7.65;;;32.00;1.00;;;;;;7371954;19;20014;-68
2022/07/25 09:45:02;;;;;;;8.60;7.75;;;32.00;1.00;;;;;;7393825;19;20018;-69
2022/07/25 09:47:33;;;;;;;7.32;6.63;;;32.00;1.00;;;;;;7369069;19;20010;-68
2022/07/25 09:50:04;;;;;;;7.45;6.75;;;32.00;1.00;;;;;;7371720;19;20007;-68
2022/07/25 09:52:34;;;;;;;8.85;7.18;;;32.20;1.00;;;;;;7371928;19;20011;-68
2022/07/25 09:55:08;;;;;;;8.57;6.97;;;32.50;1.00;;;;;;7372358;19;20086;-67
2022/07/25 09:57:43;;;;;;;8.15;7.35;;;32.40;1.00;;;;;;7371828;19;20014;-67
2022/07/25 10:00:15;;;;;;;8.50;7.70;;;32.30;1.00;;;;;;7373545;19;20038;-68
2022/07/25 10:03:02;;;;;;;8.57;7.25;;;32.30;1.00;;;;;;7392769;19;20014;-68
2022/07/25 10:05:45;;;;;;;9.05;7.35;;;32.60;1.00;;;;;;7370648;19;20419;-67
2022/07/25 10:08:15;;;;;;;8.05;7.25;;;32.60;1.00;;;;;;7370963;19;20190;-68
2022/07/25 10:10:45;;;;;;;10.35;7.40;;;32.30;1.00;;;;;;7370664;19;20014;-68
2022/07/25 10:13:29;;;;;;;8.15;7.10;;;32.40;1.00;;;;;;7372427;19;20011;-68
2022/07/25 10:15:59;;;;;;;8.05;7.20;;;32.70;1.00;;;;;;7370764;19;20091;-67
2022/07/25 10:18:31;;;;;;;8.27;7.13;;;32.80;1.00;;;;;;7373122;19;20018;-69
2022/07/25 10:21:11;;;;;;;7.60;6.90;;;32.20;1.00;;;;;;7395350;19;20010;-68
2022/07/25 10:24:04;;;;;;;8.52;7.25;;;32.70;1.00;;;;;;7373325;19;20018;-69
2022/07/25 10:26:37;;;;;;;8.27;6.53;;;32.90;1.00;;;;;;7368910;19;20021;-68
2022/07/25 10:29:13;;;;;;;7.07;6.38;;;32.70;1.00;;;;;;7371319;19;20458;-68
2022/07/25 10:31:45;;;;;;;7.57;6.40;;;32.90;1.00;;;;;;7369757;19;20038;-68
2022/07/25 10:34:31;;;;;;;11.32;6.35;;;32.90;1.00;;;;;;7371997;19;20006;-68
2022/07/25 10:37:11;;;;;;;6.82;5.90;;;33.40;1.00;;;;;;7370184;19;20044;-68
2022/07/25 10:39:43;;;;;;;6.65;6.05;;;33.20;1.00;;;;;;7368679;19;20078;-68
2022/07/25 10:42:16;;;;;;;6.90;5.47;;;33.50;1.00;;;;;;7369532;19;20053;-68
2022/07/25 10:44:51;;;;;;;6.20;5.60;;;33.80;1.00;;;;;;7393563;19;20029;-69
2022/07/25 10:47:25;;;;;;;6.47;5.60;;;33.80;1.00;;;;;;7367669;19;20034;-68
2022/07/25 10:49:59;;;;;;;7.05;5.70;;;33.70;1.00;;;;;;7370085;19;20018;-69
2022/07/25 10:53:00;;;;;;;7.88;6.13;;;33.50;1.00;;;;;;7369396;19;20018;-68
2022/07/25 10:55:30;;;;;;;7.03;5.97;;;33.60;1.00;;;;;;7369985;19;20017;-69
2022/07/25 10:58:05;;;;;;;5.80;5.30;;;33.00;1.00;;;;;;7370414;19;20621;-68
2022/07/25 11:00:53;;;;;;;6.50;5.90;;;33.30;1.00;;;;;;7369574;19;20392;-69
2022/07/25 11:03:24;;;;;;;6.53;5.93;;;33.70;1.00;;;;;;7370835;19;20041;-68
2022/07/25 11:05:55;;;;;;;7.28;6.30;;;33.70;1.00;;;;;;7387503;19;20015;-69
2022/07/25 11:08:34;;;;;;;7.57;5.68;;;33.70;1.00;;;;;;7369374;19;20419;-69
2022/07/25 11:11:04;;;;;;;6.30;5.70;;;33.90;1.00;;;;;;7368788;19;20023;-69
2022/07/25 11:13:38;;;;;;;7.55;5.45;;;33.80;1.00;;;;;;7370275;19;20603;-69
2022/07/25 11:16:12;;;;;;;6.13;5.53;;;34.00;1.00;;;;;;7368574;19;20010;-68
2022/07/25 11:18:43;;;;;;;6.05;5.55;;;34.10;1.00;;;;;;7370250;19;20014;-68
2022/07/25 11:21:12;;;;;;;7.22;5.68;;;34.00;1.00;;;;;;7371462;19;20012;-68
2022/07/25 11:23:42;;;;;;;6.20;5.57;;;34.00;1.00;;;;;;7392870;19;20517;-68
2022/07/25 11:26:14;;;;;;;5.97;5.38;;;34.20;1.00;;;;;;7368220;19;20014;-68
2022/07/25 11:28:46;;;;;;;5.95;5.00;;;34.30;1.00;;;;;;7369982;19;20010;-68
2022/07/25 11:31:20;;;;;;;5.80;5.20;;;34.10;1.00;;;;;;7369912;19;20006;-67
2022/07/25 11:33:51;;;;;;;5.43;4.93;;;34.20;1.00;;;;;;7370120;19;20006;-69
2022/07/25 11:36:21;;;;;;;7.05;5.25;;;34.50;1.00;;;;;;7368504;19;20010;-68
2022/07/25 11:38:51;;;;;;;6.65;5.38;;;34.00;1.00;;;;;;7389417;19;20350;-70
2022/07/25 11:41:30;;;;;;;5.75;5.20;;;34.60;1.00;;;;;;7367880;19;20011;-68
2022/07/25 11:44:00;;;;;;;6.57;5.63;;;34.70;1.00;;;;;;7368748;19;20074;-68
2022/07/25 11:46:43;;;;;;;5.95;4.80;;;34.40;1.00;;;;;;7368157;19;20354;-68
2022/07/25 11:49:13;;;;;;;5.38;4.93;;;34.70;1.00;;;;;;7369772;19;20034;-68
2022/07/25 11:51:44;;;;;;;5.57;5.07;;;34.60;1.00;;;;;;7367078;19;20015;-69
2022/07/25 11:54:15;;;;;;;6.78;5.60;;;34.70;1.00;;;;;;7369949;19;20038;-70
2022/07/25 11:56:46;;;;;;;4.85;4.45;;;34.90;1.00;;;;;;7389464;19;20032;-68
2022/07/25 11:59:16;;;;;;;6.07;5.15;;;34.90;1.00;;;;;;7369526;19;20007;-68
2022/07/25 12:01:48;;;;;;;5.68;5.05;;;35.00;1.00;;;;;;7369406;19;20010;-70
2022/07/25 12:04:20;;;;;;;5.55;5.05;;;34.20;1.00;;;;;;7367557;19;20058;-69
2022/07/25 12:06:51;;;;;;;5.25;4.75;;;34.20;1.00;;;;;;7367393;19;20014;-70
2022/07/25 12:09:23;;;;;;;5.82;5.30;;;34.00;1.00;;;;;;7369331;19;20014;-68
2022/07/25 12:12:04;;;;;;;5.57;5.03;;;34.00;1.00;;;;;;7390576;19;20370;-69
2022/07/25 12:14:44;;;;;;;6.47;5.10;;;34.60;1.00;;;;;;7369223;19;20011;-69
2022/07/25 12:17:17;;;;;;;5.60;5.13;;;34.50;1.00;;;;;;7366225;19;20016;-69
2022/07/25 12:19:47;;;;;;;6.40;5.80;;;35.30;1.00;;;;;;7368192;19;20007;-70
2022/07/25 12:22:17;;;;;;;5.82;5.10;;;34.90;1.00;;;;;;7368921;19;20458;-70
2022/07/25 12:24:47;;;;;;;5.75;5.22;;;35.10;1.00;;;;;;7368670;19;20093;-69
2022/07/25 12:27:17;;;;;;;5.75;5.28;;;34.80;1.00;;;;;;7367403;19;20018;-69
2022/07/25 12:29:47;;;;;;;5.22;4.82;;;34.60;1.00;;;;;;7390650;19;20094;-69
2022/07/25 12:32:19;;;;;;;5.60;4.97;;;34.70;1.00;;;;;;7367950;19;20011;-70
2022/07/25 12:34:49;;;;;;;6.45;4.88;;;34.60;1.00;;;;;;7367059;19;20338;-70
2022/07/25 12:37:20;;;;;;;7.53;5.63;;;34.60;1.00;;;;;;7366632;19;20026;-69
2022/07/25 12:39:50;;;;;;;10.13;5.32;;;34.10;1.00;;;;;;7365434;19;20007;-71
2022/07/25 12:42:20;;;;;;;6.70;5.35;;;34.30;1.00;;;;;;7367737;19;20018;-70
2022/07/25 12:44:50;;;;;;;5.82;5.32;;;34.00;1.00;;;;;;7388482;19;20310;-69
2022/07/25 12:47:25;;;;;;;5.70;5.10;;;33.70;1.00;;;;;;7364889;19;20060;-69
2022/07/25 12:49:55;;;;;;;7.38;4.88;;;33.80;1.00;;;;;;7366514;19;20007;-71
2022/07/25 12:52:25;;;;;;;6.50;5.90;;;33.60;1.00;;;;;;7366767;19;20384;-68
2022/07/25 12:54:58;;;;;;;6.45;5.47;;;33.40;1.00;;;;;;7366303;19;20466;-69
2022/07/25 12:57:28;;;;;;;5.95;5.45;;;33.50;1.00;;;;;;7365667;19;20541;-70
2022/07/25 12:59:58;;;;;;;6.50;5.88;;;33.40;1.00;;;;;;7389960;19;20021;-69
2022/07/25 13:02:30;;;;;;;6.80;5.93;;;34.00;1.00;;;;;;7373026;19;20458;-70
2022/07/25 13:05:01;;;;;;;8.70;6.88;;;34.00;1.00;;;;;;7374038;19;20010;-70
2022/07/25 13:07:31;;;;;;;9.23;6.28;;;34.40;1.00;;;;;;7369618;19;20049;-70
2022/07/25 13:10:00;;;;;;;7.22;5.75;;;34.50;1.00;;;;;;7373510;19;20007;-68
2022/07/25 13:12:31;;;;;;;8.80;5.78;;;35.00;1.00;;;;;;7374586;19;20027;-68
2022/07/25 13:15:01;;;;;;;6.78;5.35;;;34.70;1.00;;;;;;7397252;19;20010;-68
2022/07/25 13:17:33;;;;;;;6.30;5.63;;;34.30;1.00;;;;;;7371502;19;20010;-71